sensor_id;sensor_type;location;lat;lon;timestamp;P1;durP1;ratioP1;P2;durP2;ratioP2
82744;SDS011;72484;50.004;14.356;2024-03-23T00:52:51;14.60;;;9.20;;
82744;SDS011;72484;50.004;14.356;2024-03-23T00:56:28;14.00;;;8.60;;
82744;SDS011;72484;50.004;14.356;2024-03-23T00:59:49;13.60;;;8.50;;
82744;SDS011;72484;50.004;14.356;2024-03-23T01:03:47;13.40;;;9.00;;
82744;SDS011;72484;50.004;14.356;2024-03-23T01:08:05;13.90;;;8.50;;
82744;SDS011;72484;50.004;14.356;2024-03-23T01:11:24;14.60;;;9.50;;
82744;SDS011;72484;50.004;14.356;2024-03-23T01:15:26;13.50;;;8.30;;
82744;SDS011;72484;50.004;14.356;2024-03-23T01:19:26;13.60;;;8.40;;
82744;SDS011;72484;50.004;14.356;2024-03-23T01:23:44;15.10;;;8.60;;
82744;SDS011;72484;50.004;14.356;2024-03-23T01:27:22;14.30;;;8.60;;
82744;SDS011;72484;50.004;14.356;2024-03-23T01:31:00;14.70;;;9.40;;
82744;SDS011;72484;50.004;14.356;2024-03-23T01:34:37;16.50;;;10.40;;
82744;SDS011;72484;50.004;14.356;2024-03-23T01:37:57;16.30;;;9.50;;
82744;SDS011;72484;50.004;14.356;2024-03-23T01:41:56;15.50;;;9.70;;
82744;SDS011;72484;50.004;14.356;2024-03-23T01:46:15;15.50;;;9.70;;
82744;SDS011;72484;50.004;14.356;2024-03-23T01:49:54;15.10;;;10.00;;
82744;SDS011;72484;50.004;14.356;2024-03-23T01:53:31;16.70;;;10.10;;
82744;SDS011;72484;50.004;14.356;2024-03-23T01:56:52;16.70;;;10.80;;
82744;SDS011;72484;50.004;14.356;2024-03-23T02:01:12;18.40;;;11.30;;
82744;SDS011;72484;50.004;14.356;2024-03-23T02:04:32;16.10;;;10.80;;
82744;SDS011;72484;50.004;14.356;2024-03-23T02:08:31;16.10;;;9.80;;
82744;SDS011;72484;50.004;14.356;2024-03-23T02:12:32;18.70;;;11.10;;
82744;SDS011;72484;50.004;14.356;2024-03-23T02:16:49;17.90;;;10.80;;
82744;SDS011;72484;50.004;14.356;2024-03-23T02:20:10;18.00;;;10.80;;
82744;SDS011;72484;50.004;14.356;2024-03-23T02:24:28;14.70;;;9.40;;
82744;SDS011;72484;50.004;14.356;2024-03-23T02:27:48;14.00;;;8.40;;
82744;SDS011;72484;50.004;14.356;2024-03-23T02:31:46;14.50;;;8.50;;
82744;SDS011;72484;50.004;14.356;2024-03-23T02:36:05;13.90;;;8.40;;
82744;SDS011;72484;50.004;14.356;2024-03-23T02:39:24;13.50;;;8.50;;
82744;SDS011;72484;50.004;14.356;2024-03-23T02:43:23;13.60;;;8.90;;
82744;SDS011;72484;50.004;14.356;2024-03-23T02:47:22;12.90;;;8.30;;
82744;SDS011;72484;50.004;14.356;2024-03-23T02:51:39;14.00;;;8.10;;
82744;SDS011;72484;50.004;14.356;2024-03-23T02:55:18;15.00;;;9.30;;
82744;SDS011;72484;50.004;14.356;2024-03-23T02:58:54;17.70;;;10.20;;
82744;SDS011;72484;50.004;14.356;2024-03-23T03:02:15;16.30;;;9.40;;
82744;SDS011;72484;50.004;14.356;2024-03-23T03:06:33;17.10;;;9.20;;
82744;SDS011;72484;50.004;14.356;2024-03-23T03:09:52;14.10;;;8.60;;
82744;SDS011;72484;50.004;14.356;2024-03-23T03:13:51;13.60;;;8.40;;
82744;SDS011;72484;50.004;14.356;2024-03-23T03:18:08;14.20;;;8.80;;
82744;SDS011;72484;50.004;14.356;2024-03-23T03:21:47;13.30;;;7.90;;
82744;SDS011;72484;50.004;14.356;2024-03-23T03:25:06;12.90;;;7.90;;
82744;SDS011;72484;50.004;14.356;2024-03-23T03:29:09;12.90;;;7.40;;
82744;SDS011;72484;50.004;14.356;2024-03-23T03:33:26;13.00;;;7.50;;
82744;SDS011;72484;50.004;14.356;2024-03-23T03:36:47;12.00;;;7.30;;
82744;SDS011;72484;50.004;14.356;2024-03-23T03:41:04;13.30;;;7.60;;
82744;SDS011;72484;50.004;14.356;2024-03-23T03:44:43;13.80;;;7.50;;
82744;SDS011;72484;50.004;14.356;2024-03-23T03:48:01;12.30;;;7.30;;
82744;SDS011;72484;50.004;14.356;2024-03-23T03:52:01;12.70;;;7.20;;
82744;SDS011;72484;50.004;14.356;2024-03-23T03:56:18;11.70;;;7.60;;
82744;SDS011;72484;50.004;14.356;2024-03-23T03:59:38;13.10;;;8.50;;
82744;SDS011;72484;50.004;14.356;2024-03-23T04:03:55;13.20;;;8.50;;
82744;SDS011;72484;50.004;14.356;2024-03-23T04:07:33;13.40;;;8.80;;
82744;SDS011;72484;50.004;14.356;2024-03-23T04:10:52;13.60;;;8.20;;
82744;SDS011;72484;50.004;14.356;2024-03-23T04:14:52;14.70;;;8.50;;
82744;SDS011;72484;50.004;14.356;2024-03-23T04:18:52;16.00;;;9.90;;
82744;SDS011;72484;50.004;14.356;2024-03-23T04:23:09;14.10;;;9.10;;
82744;SDS011;72484;50.004;14.356;2024-03-23T04:26:29;14.30;;;8.00;;
82744;SDS011;72484;50.004;14.356;2024-03-23T04:30:36;12.80;;;6.60;;
82744;SDS011;72484;50.004;14.356;2024-03-23T04:34:36;12.90;;;7.70;;
82744;SDS011;72484;50.004;14.356;2024-03-23T04:38:54;14.20;;;8.00;;
82744;SDS011;72484;50.004;14.356;2024-03-23T04:42:32;14.10;;;7.20;;
82744;SDS011;72484;50.004;14.356;2024-03-23T04:45:51;13.90;;;7.60;;
82744;SDS011;72484;50.004;14.356;2024-03-23T04:49:51;12.30;;;7.50;;
82744;SDS011;72484;50.004;14.356;2024-03-23T04:54:12;13.00;;;7.50;;
82744;SDS011;72484;50.004;14.356;2024-03-23T04:57:49;14.40;;;7.90;;
82744;SDS011;72484;50.004;14.356;2024-03-23T05:01:27;14.20;;;8.20;;
82744;SDS011;72484;50.004;14.356;2024-03-23T05:05:05;12.30;;;7.30;;
82744;SDS011;72484;50.004;14.356;2024-03-23T05:08:25;12.80;;;7.60;;
82744;SDS011;72484;50.004;14.356;2024-03-23T05:12:43;13.80;;;7.90;;
82744;SDS011;72484;50.004;14.356;2024-03-23T05:16:20;17.00;;;10.40;;
82744;SDS011;72484;50.004;14.356;2024-03-23T05:19:58;16.10;;;10.30;;
82744;SDS011;72484;50.004;14.356;2024-03-23T05:23:35;14.50;;;9.20;;
82744;SDS011;72484;50.004;14.356;2024-03-23T05:26:56;15.80;;;9.30;;
82744;SDS011;72484;50.004;14.356;2024-03-23T05:30:57;16.50;;;11.10;;
82744;SDS011;72484;50.004;14.356;2024-03-23T05:34:58;16.10;;;9.70;;
82744;SDS011;72484;50.004;14.356;2024-03-23T05:38:58;13.70;;;8.60;;
82744;SDS011;72484;50.004;14.356;2024-03-23T05:43:15;15.50;;;9.10;;
82744;SDS011;72484;50.004;14.356;2024-03-23T05:46:53;12.50;;;7.90;;
82744;SDS011;72484;50.004;14.356;2024-03-23T05:50:31;13.60;;;8.30;;
82744;SDS011;72484;50.004;14.356;2024-03-23T05:53:50;13.00;;;8.30;;
82744;SDS011;72484;50.004;14.356;2024-03-23T05:58:09;13.00;;;8.00;;
82744;SDS011;72484;50.004;14.356;2024-03-23T06:01:47;14.40;;;8.30;;
82744;SDS011;72484;50.004;14.356;2024-03-23T06:05:25;15.20;;;8.80;;
82744;SDS011;72484;50.004;14.356;2024-03-23T06:08:45;13.50;;;8.40;;
82744;SDS011;72484;50.004;14.356;2024-03-23T06:13:02;13.20;;;8.70;;
82744;SDS011;72484;50.004;14.356;2024-03-23T06:16:40;13.80;;;8.30;;
82744;SDS011;72484;50.004;14.356;2024-03-23T06:20:00;13.00;;;8.30;;
82744;SDS011;72484;50.004;14.356;2024-03-23T06:23:59;14.10;;;8.50;;
82744;SDS011;72484;50.004;14.356;2024-03-23T06:28:00;13.40;;;8.40;;
82744;SDS011;72484;50.004;14.356;2024-03-23T06:32:01;12.30;;;7.50;;
82744;SDS011;72484;50.004;14.356;2024-03-23T06:36:19;13.70;;;7.90;;
82744;SDS011;72484;50.004;14.356;2024-03-23T06:39:58;13.00;;;7.80;;
82744;SDS011;72484;50.004;14.356;2024-03-23T06:43:34;12.10;;;7.30;;
82744;SDS011;72484;50.004;14.356;2024-03-23T06:47:13;13.00;;;7.60;;
82744;SDS011;72484;50.004;14.356;2024-03-23T06:50:32;12.50;;;7.30;;
82744;SDS011;72484;50.004;14.356;2024-03-23T06:54:35;11.80;;;7.10;;
82744;SDS011;72484;50.004;14.356;2024-03-23T06:58:34;13.10;;;7.60;;
82744;SDS011;72484;50.004;14.356;2024-03-23T07:02:34;13.60;;;8.00;;
82744;SDS011;72484;50.004;14.356;2024-03-23T07:06:34;12.80;;;7.90;;
82744;SDS011;72484;50.004;14.356;2024-03-23T07:10:59;12.10;;;7.60;;
82744;SDS011;72484;50.004;14.356;2024-03-23T07:14:37;13.60;;;8.00;;
82744;SDS011;72484;50.004;14.356;2024-03-23T07:17:56;12.10;;;7.20;;
82744;SDS011;72484;50.004;14.356;2024-03-23T07:21:55;13.10;;;7.20;;
82744;SDS011;72484;50.004;14.356;2024-03-23T07:25:58;13.60;;;7.50;;
82744;SDS011;72484;50.004;14.356;2024-03-23T07:29:58;13.60;;;7.70;;
82744;SDS011;72484;50.004;14.356;2024-03-23T07:33:57;12.70;;;7.50;;
82744;SDS011;72484;50.004;14.356;2024-03-23T07:37:57;12.90;;;6.80;;
82744;SDS011;72484;50.004;14.356;2024-03-23T07:42:00;12.30;;;6.80;;
82744;SDS011;72484;50.004;14.356;2024-03-23T07:46:00;12.40;;;7.20;;
82744;SDS011;72484;50.004;14.356;2024-03-23T07:50:17;13.10;;;6.90;;
82744;SDS011;72484;50.004;14.356;2024-03-23T07:53:38;11.20;;;6.50;;
82744;SDS011;72484;50.004;14.356;2024-03-23T07:57:58;11.20;;;6.30;;
82744;SDS011;72484;50.004;14.356;2024-03-23T08:01:18;12.70;;;6.90;;
82744;SDS011;72484;50.004;14.356;2024-03-23T08:05:37;12.40;;;6.50;;
82744;SDS011;72484;50.004;14.356;2024-03-23T08:09:15;11.60;;;6.20;;
82744;SDS011;72484;50.004;14.356;2024-03-23T08:12:54;11.60;;;6.30;;
82744;SDS011;72484;50.004;14.356;2024-03-23T08:16:12;12.70;;;6.70;;
82744;SDS011;72484;50.004;14.356;2024-03-23T08:20:11;11.30;;;5.60;;
82744;SDS011;72484;50.004;14.356;2024-03-23T08:24:09;10.00;;;5.00;;
82744;SDS011;72484;50.004;14.356;2024-03-23T08:28:26;10.20;;;4.50;;
82744;SDS011;72484;50.004;14.356;2024-03-23T08:32:04;7.50;;;3.50;;
82744;SDS011;72484;50.004;14.356;2024-03-23T08:35:41;8.50;;;3.60;;
82744;SDS011;72484;50.004;14.356;2024-03-23T08:39:01;8.50;;;3.50;;
82744;SDS011;72484;50.004;14.356;2024-03-23T08:42:59;9.50;;;3.00;;
82744;SDS011;72484;50.004;14.356;2024-03-23T08:47:16;7.70;;;3.30;;
82744;SDS011;72484;50.004;14.356;2024-03-23T08:50:59;7.80;;;3.50;;
82744;SDS011;72484;50.004;14.356;2024-03-23T08:54:14;9.40;;;3.50;;
82744;SDS011;72484;50.004;14.356;2024-03-23T08:58:12;8.60;;;3.40;;
82744;SDS011;72484;50.004;14.356;2024-03-23T09:02:31;7.90;;;3.40;;
82744;SDS011;72484;50.004;14.356;2024-03-23T09:05:50;7.10;;;3.10;;
82744;SDS011;72484;50.004;14.356;2024-03-23T09:10:09;9.30;;;3.20;;
82744;SDS011;72484;50.004;14.356;2024-03-23T09:13:46;8.00;;;3.40;;
82744;SDS011;72484;50.004;14.356;2024-03-23T09:17:06;8.80;;;4.00;;
82744;SDS011;72484;50.004;14.356;2024-03-23T09:21:24;8.60;;;3.90;;
82744;SDS011;72484;50.004;14.356;2024-03-23T09:25:03;8.50;;;4.40;;
82744;SDS011;72484;50.004;14.356;2024-03-23T09:28:22;9.00;;;3.70;;
82744;SDS011;72484;50.004;14.356;2024-03-23T09:32:40;7.40;;;3.00;;
82744;SDS011;72484;50.004;14.356;2024-03-23T09:36:17;6.20;;;2.60;;
82744;SDS011;72484;50.004;14.356;2024-03-23T09:39:55;6.90;;;2.60;;
82744;SDS011;72484;50.004;14.356;2024-03-23T09:43:14;7.10;;;2.40;;
82744;SDS011;72484;50.004;14.356;2024-03-23T09:47:32;7.10;;;2.50;;
82744;SDS011;72484;50.004;14.356;2024-03-23T09:51:09;6.80;;;2.80;;
82744;SDS011;72484;50.004;14.356;2024-03-23T09:54:47;7.60;;;3.00;;
82744;SDS011;72484;50.004;14.356;2024-03-23T09:58:24;7.70;;;3.10;;
82744;SDS011;72484;50.004;14.356;2024-03-23T10:02:02;8.00;;;3.40;;
82744;SDS011;72484;50.004;14.356;2024-03-23T10:05:22;10.10;;;2.90;;
82744;SDS011;72484;50.004;14.356;2024-03-23T10:09:41;7.80;;;3.20;;
82744;SDS011;72484;50.004;14.356;2024-03-23T10:13:25;7.50;;;3.30;;
82744;SDS011;72484;50.004;14.356;2024-03-23T10:16:57;7.70;;;3.40;;
82744;SDS011;72484;50.004;14.356;2024-03-23T10:20:20;7.10;;;3.30;;
82744;SDS011;72484;50.004;14.356;2024-03-23T10:24:20;9.80;;;4.20;;
82744;SDS011;72484;50.004;14.356;2024-03-23T10:28:37;8.50;;;3.80;;
82744;SDS011;72484;50.004;14.356;2024-03-23T10:32:16;11.10;;;5.00;;
82744;SDS011;72484;50.004;14.356;2024-03-23T10:35:36;8.30;;;3.90;;
82744;SDS011;72484;50.004;14.356;2024-03-23T10:39:53;9.10;;;4.80;;
82744;SDS011;72484;50.004;14.356;2024-03-23T10:43:12;7.90;;;3.40;;
82744;SDS011;72484;50.004;14.356;2024-03-23T10:47:13;10.30;;;4.40;;
82744;SDS011;72484;50.004;14.356;2024-03-23T10:51:30;8.80;;;3.60;;
82744;SDS011;72484;50.004;14.356;2024-03-23T10:55:08;19.00;;;3.80;;
82744;SDS011;72484;50.004;14.356;2024-03-23T10:58:47;15.80;;;3.70;;
82744;SDS011;72484;50.004;14.356;2024-03-23T11:02:05;23.70;;;4.10;;
82744;SDS011;72484;50.004;14.356;2024-03-23T11:10:51;16.00;;;3.10;;
82744;SDS011;72484;50.004;14.356;2024-03-23T11:14:29;8.10;;;3.00;;
82744;SDS011;72484;50.004;14.356;2024-03-23T11:18:06;9.50;;;3.10;;
82744;SDS011;72484;50.004;14.356;2024-03-23T11:21:54;8.50;;;2.90;;
82744;SDS011;72484;50.004;14.356;2024-03-23T11:25:04;7.10;;;3.20;;
82744;SDS011;72484;50.004;14.356;2024-03-23T11:29:12;7.00;;;2.80;;
82744;SDS011;72484;50.004;14.356;2024-03-23T11:33:30;7.80;;;2.90;;
82744;SDS011;72484;50.004;14.356;2024-03-23T11:37:08;7.10;;;2.90;;
82744;SDS011;72484;50.004;14.356;2024-03-23T11:40:28;6.60;;;2.50;;
82744;SDS011;72484;50.004;14.356;2024-03-23T11:44:46;7.20;;;2.80;;
82744;SDS011;72484;50.004;14.356;2024-03-23T11:48:09;7.40;;;3.00;;
82744;SDS011;72484;50.004;14.356;2024-03-23T11:52:26;5.50;;;1.50;;
82744;SDS011;72484;50.004;14.356;2024-03-23T11:55:47;5.80;;;1.50;;
82744;SDS011;72484;50.004;14.356;2024-03-23T12:03:43;6.60;;;2.10;;
82744;SDS011;72484;50.004;14.356;2024-03-23T12:07:22;7.00;;;2.50;;
82744;SDS011;72484;50.004;14.356;2024-03-23T12:11:05;5.90;;;2.20;;
82744;SDS011;72484;50.004;14.356;2024-03-23T12:14:18;6.00;;;1.90;;
82744;SDS011;72484;50.004;14.356;2024-03-23T12:18:16;6.00;;;1.70;;
82744;SDS011;72484;50.004;14.356;2024-03-23T12:22:21;5.30;;;1.40;;
82744;SDS011;72484;50.004;14.356;2024-03-23T12:26:22;5.80;;;1.50;;
82744;SDS011;72484;50.004;14.356;2024-03-23T12:30:21;5.00;;;1.10;;
82744;SDS011;72484;50.004;14.356;2024-03-23T12:34:20;4.80;;;1.20;;
82744;SDS011;72484;50.004;14.356;2024-03-23T12:38:38;4.50;;;0.90;;
82744;SDS011;72484;50.004;14.356;2024-03-23T12:42:16;3.70;;;0.70;;
82744;SDS011;72484;50.004;14.356;2024-03-23T12:45:53;4.10;;;0.70;;
82744;SDS011;72484;50.004;14.356;2024-03-23T12:49:13;3.70;;;0.70;;
82744;SDS011;72484;50.004;14.356;2024-03-23T12:53:33;3.50;;;0.60;;
82744;SDS011;72484;50.004;14.356;2024-03-23T12:57:11;2.80;;;0.60;;
82744;SDS011;72484;50.004;14.356;2024-03-23T13:00:48;3.70;;;0.70;;
82744;SDS011;72484;50.004;14.356;2024-03-23T13:04:08;3.80;;;0.60;;
82744;SDS011;72484;50.004;14.356;2024-03-23T13:08:12;3.50;;;0.70;;
82744;SDS011;72484;50.004;14.356;2024-03-23T13:12:28;3.80;;;0.70;;
82744;SDS011;72484;50.004;14.356;2024-03-23T13:16:06;3.90;;;0.70;;
82744;SDS011;72484;50.004;14.356;2024-03-23T13:19:26;3.30;;;0.70;;
82744;SDS011;72484;50.004;14.356;2024-03-23T13:23:46;3.30;;;0.70;;
82744;SDS011;72484;50.004;14.356;2024-03-23T13:27:22;3.60;;;0.60;;
82744;SDS011;72484;50.004;14.356;2024-03-23T13:30:49;3.90;;;0.60;;
82744;SDS011;72484;50.004;14.356;2024-03-23T13:35:07;4.60;;;0.70;;
82744;SDS011;72484;50.004;14.356;2024-03-23T13:38:44;3.60;;;0.70;;
82744;SDS011;72484;50.004;14.356;2024-03-23T13:42:22;3.40;;;0.60;;
82744;SDS011;72484;50.004;14.356;2024-03-23T13:45:42;3.90;;;0.60;;
82744;SDS011;72484;50.004;14.356;2024-03-23T13:49:59;4.00;;;0.60;;
82744;SDS011;72484;50.004;14.356;2024-03-23T13:53:36;3.20;;;0.60;;
82744;SDS011;72484;50.004;14.356;2024-03-23T13:56:56;3.20;;;0.80;;
82744;SDS011;72484;50.004;14.356;2024-03-23T14:00:57;3.90;;;0.80;;
82744;SDS011;72484;50.004;14.356;2024-03-23T14:05:14;3.90;;;0.80;;
82744;SDS011;72484;50.004;14.356;2024-03-23T14:08:52;4.00;;;0.80;;
82744;SDS011;72484;50.004;14.356;2024-03-23T14:12:31;4.50;;;0.80;;
82744;SDS011;72484;50.004;14.356;2024-03-23T14:16:08;3.90;;;0.70;;
82744;SDS011;72484;50.004;14.356;2024-03-23T14:19:46;3.60;;;0.60;;
82744;SDS011;72484;50.004;14.356;2024-03-23T14:23:23;6.10;;;0.80;;
82744;SDS011;72484;50.004;14.356;2024-03-23T14:27:01;4.30;;;0.80;;
82744;SDS011;72484;50.004;14.356;2024-03-23T14:30:39;4.40;;;0.90;;
82744;SDS011;72484;50.004;14.356;2024-03-23T14:33:59;3.70;;;0.80;;
82744;SDS011;72484;50.004;14.356;2024-03-23T14:37:58;3.70;;;0.70;;
82744;SDS011;72484;50.004;14.356;2024-03-23T14:42:16;3.90;;;0.80;;
82744;SDS011;72484;50.004;14.356;2024-03-23T14:45:36;3.90;;;0.80;;
82744;SDS011;72484;50.004;14.356;2024-03-23T14:50:05;4.20;;;0.80;;
82744;SDS011;72484;50.004;14.356;2024-03-23T14:53:24;4.90;;;1.10;;
82744;SDS011;72484;50.004;14.356;2024-03-23T14:57:43;4.70;;;1.30;;
82744;SDS011;72484;50.004;14.356;2024-03-23T15:01:21;5.10;;;1.20;;
82744;SDS011;72484;50.004;14.356;2024-03-23T15:04:58;5.30;;;1.20;;
82744;SDS011;72484;50.004;14.356;2024-03-23T15:08:36;4.60;;;1.10;;
82744;SDS011;72484;50.004;14.356;2024-03-23T15:12:15;5.20;;;1.30;;
82744;SDS011;72484;50.004;14.356;2024-03-23T15:15:52;4.70;;;1.10;;
82744;SDS011;72484;50.004;14.356;2024-03-23T15:19:11;5.10;;;1.30;;
82744;SDS011;72484;50.004;14.356;2024-03-23T15:23:30;4.70;;;1.20;;
82744;SDS011;72484;50.004;14.356;2024-03-23T15:26:50;5.90;;;1.50;;
82744;SDS011;72484;50.004;14.356;2024-03-23T15:30:50;4.90;;;1.20;;
82744;SDS011;72484;50.004;14.356;2024-03-23T15:35:07;4.90;;;1.00;;
82744;SDS011;72484;50.004;14.356;2024-03-23T15:38:45;5.80;;;1.20;;
82744;SDS011;72484;50.004;14.356;2024-03-23T15:42:23;5.80;;;1.40;;
82744;SDS011;72484;50.004;14.356;2024-03-23T15:46:00;5.10;;;1.30;;
82744;SDS011;72484;50.004;14.356;2024-03-23T15:49:20;5.90;;;1.80;;
82744;SDS011;72484;50.004;14.356;2024-03-23T15:53:38;6.60;;;1.50;;
82744;SDS011;72484;50.004;14.356;2024-03-23T15:57:17;6.00;;;1.60;;
82744;SDS011;72484;50.004;14.356;2024-03-23T16:00:56;7.00;;;1.60;;
82744;SDS011;72484;50.004;14.356;2024-03-23T16:04:31;6.10;;;1.60;;
82744;SDS011;72484;50.004;14.356;2024-03-23T16:08:08;6.00;;;1.60;;
82744;SDS011;72484;50.004;14.356;2024-03-23T16:11:46;5.30;;;1.60;;
82744;SDS011;72484;50.004;14.356;2024-03-23T16:15:06;6.30;;;1.90;;
82744;SDS011;72484;50.004;14.356;2024-03-23T16:19:23;6.50;;;2.00;;
82744;SDS011;72484;50.004;14.356;2024-03-23T16:23:01;6.40;;;2.10;;
82744;SDS011;72484;50.004;14.356;2024-03-23T16:26:21;6.80;;;2.00;;
82744;SDS011;72484;50.004;14.356;2024-03-23T16:30:19;6.80;;;2.10;;
82744;SDS011;72484;50.004;14.356;2024-03-23T16:34:35;7.50;;;1.90;;
82744;SDS011;72484;50.004;14.356;2024-03-23T16:38:13;7.90;;;3.10;;
82744;SDS011;72484;50.004;14.356;2024-03-23T16:41:32;40.80;;;22.40;;
82744;SDS011;72484;50.004;14.356;2024-03-23T16:45:53;9.10;;;4.60;;
82744;SDS011;72484;50.004;14.356;2024-03-23T16:49:27;9.80;;;5.70;;
82744;SDS011;72484;50.004;14.356;2024-03-23T16:53:04;8.10;;;3.20;;
82744;SDS011;72484;50.004;14.356;2024-03-23T16:56:42;7.80;;;2.80;;
82744;SDS011;72484;50.004;14.356;2024-03-23T17:00:20;7.60;;;2.60;;
82744;SDS011;72484;50.004;14.356;2024-03-23T17:03:40;7.60;;;2.90;;
82744;SDS011;72484;50.004;14.356;2024-03-23T17:07:55;8.30;;;3.00;;
82744;SDS011;72484;50.004;14.356;2024-03-23T17:11:33;9.50;;;3.10;;
82744;SDS011;72484;50.004;14.356;2024-03-23T17:15:13;9.80;;;3.90;;
82744;SDS011;72484;50.004;14.356;2024-03-23T17:18:48;8.70;;;4.00;;
82744;SDS011;72484;50.004;14.356;2024-03-23T17:22:08;8.40;;;3.50;;
82744;SDS011;72484;50.004;14.356;2024-03-23T17:26:24;7.60;;;2.60;;
82744;SDS011;72484;50.004;14.356;2024-03-23T17:29:44;9.00;;;3.00;;
82744;SDS011;72484;50.004;14.356;2024-03-23T17:34:01;7.70;;;2.90;;
82744;SDS011;72484;50.004;14.356;2024-03-23T17:37:20;7.60;;;3.10;;
82744;SDS011;72484;50.004;14.356;2024-03-23T17:41:19;7.20;;;2.70;;
82744;SDS011;72484;50.004;14.356;2024-03-23T17:45:17;8.70;;;3.30;;
82744;SDS011;72484;50.004;14.356;2024-03-23T17:49:15;10.40;;;4.30;;
82744;SDS011;72484;50.004;14.356;2024-03-23T17:53:37;9.40;;;3.80;;
82744;SDS011;72484;50.004;14.356;2024-03-23T17:56:52;9.40;;;3.70;;
82744;SDS011;72484;50.004;14.356;2024-03-23T18:01:08;10.90;;;5.30;;
82744;SDS011;72484;50.004;14.356;2024-03-23T18:04:28;13.90;;;5.60;;
82744;SDS011;72484;50.004;14.356;2024-03-23T18:08:45;10.80;;;5.50;;
82744;SDS011;72484;50.004;14.356;2024-03-23T18:12:23;13.20;;;6.50;;
82744;SDS011;72484;50.004;14.356;2024-03-23T18:15:43;15.30;;;8.00;;
82744;SDS011;72484;50.004;14.356;2024-03-23T18:19:43;14.30;;;8.10;;
82744;SDS011;72484;50.004;14.356;2024-03-23T18:24:01;17.70;;;10.20;;
82744;SDS011;72484;50.004;14.356;2024-03-23T18:27:38;21.20;;;12.40;;
82744;SDS011;72484;50.004;14.356;2024-03-23T18:31:16;43.80;;;23.60;;
82744;SDS011;72484;50.004;14.356;2024-03-23T18:34:54;99.60;;;52.80;;
82744;SDS011;72484;50.004;14.356;2024-03-23T18:38:31;86.20;;;45.20;;
82744;SDS011;72484;50.004;14.356;2024-03-23T18:42:09;60.80;;;33.40;;
82744;SDS011;72484;50.004;14.356;2024-03-23T18:45:46;55.00;;;30.70;;
82744;SDS011;72484;50.004;14.356;2024-03-23T18:49:26;39.90;;;23.20;;
82744;SDS011;72484;50.004;14.356;2024-03-23T18:52:44;38.40;;;21.60;;
82744;SDS011;72484;50.004;14.356;2024-03-23T18:56:43;38.60;;;23.20;;
82744;SDS011;72484;50.004;14.356;2024-03-23T19:01:01;27.10;;;16.40;;
82744;SDS011;72484;50.004;14.356;2024-03-23T19:04:38;26.20;;;15.10;;
82744;SDS011;72484;50.004;14.356;2024-03-23T19:07:58;71.50;;;46.80;;
82744;SDS011;72484;50.004;14.356;2024-03-23T19:12:16;18.10;;;10.30;;
82744;SDS011;72484;50.004;14.356;2024-03-23T19:15:53;14.10;;;7.80;;
82744;SDS011;72484;50.004;14.356;2024-03-23T19:19:32;15.30;;;8.00;;
82744;SDS011;72484;50.004;14.356;2024-03-23T19:23:08;14.80;;;7.60;;
82744;SDS011;72484;50.004;14.356;2024-03-23T19:26:28;10.60;;;4.50;;
82744;SDS011;72484;50.004;14.356;2024-03-23T19:30:26;11.30;;;4.20;;
82744;SDS011;72484;50.004;14.356;2024-03-23T19:34:42;10.20;;;4.50;;
82744;SDS011;72484;50.004;14.356;2024-03-23T19:38:20;9.60;;;4.10;;
82744;SDS011;72484;50.004;14.356;2024-03-23T19:41:58;11.90;;;4.70;;
82744;SDS011;72484;50.004;14.356;2024-03-23T19:45:37;11.20;;;4.80;;
82744;SDS011;72484;50.004;14.356;2024-03-23T19:49:13;13.90;;;5.40;;
82744;SDS011;72484;50.004;14.356;2024-03-23T19:52:51;11.30;;;5.30;;
82744;SDS011;72484;50.004;14.356;2024-03-23T19:56:29;12.40;;;5.10;;
82744;SDS011;72484;50.004;14.356;2024-03-23T19:59:49;13.20;;;5.30;;
82744;SDS011;72484;50.004;14.356;2024-03-23T20:04:04;11.00;;;4.30;;
82744;SDS011;72484;50.004;14.356;2024-03-23T20:07:42;12.00;;;5.00;;
82744;SDS011;72484;50.004;14.356;2024-03-23T20:11:02;14.90;;;6.40;;
82744;SDS011;72484;50.004;14.356;2024-03-23T20:15:18;11.00;;;4.80;;
82744;SDS011;72484;50.004;14.356;2024-03-23T20:18:55;10.90;;;3.90;;
82744;SDS011;72484;50.004;14.356;2024-03-23T20:22:33;9.20;;;3.30;;
82744;SDS011;72484;50.004;14.356;2024-03-23T20:26:11;10.30;;;3.80;;
82744;SDS011;72484;50.004;14.356;2024-03-23T20:29:31;9.70;;;3.80;;
82744;SDS011;72484;50.004;14.356;2024-03-23T20:33:29;8.90;;;3.60;;
82744;SDS011;72484;50.004;14.356;2024-03-23T20:37:27;9.10;;;4.30;;
82744;SDS011;72484;50.004;14.356;2024-03-23T20:41:43;9.50;;;3.20;;
82744;SDS011;72484;50.004;14.356;2024-03-23T20:45:21;8.20;;;3.10;;
82744;SDS011;72484;50.004;14.356;2024-03-23T20:48:41;9.00;;;3.30;;
82744;SDS011;72484;50.004;14.356;2024-03-23T20:53:00;9.00;;;3.30;;
82744;SDS011;72484;50.004;14.356;2024-03-23T20:56:39;10.40;;;3.40;;
82744;SDS011;72484;50.004;14.356;2024-03-23T20:59:58;9.80;;;3.20;;
82744;SDS011;72484;50.004;14.356;2024-03-23T21:03:56;8.60;;;3.30;;
82744;SDS011;72484;50.004;14.356;2024-03-23T21:08:13;9.30;;;3.30;;
82744;SDS011;72484;50.004;14.356;2024-03-23T21:11:50;9.20;;;3.10;;
82744;SDS011;72484;50.004;14.356;2024-03-23T21:15:29;8.80;;;3.60;;
82744;SDS011;72484;50.004;14.356;2024-03-23T21:18:48;8.60;;;3.30;;
82744;SDS011;72484;50.004;14.356;2024-03-23T21:23:05;10.00;;;3.60;;
82744;SDS011;72484;50.004;14.356;2024-03-23T21:26:25;9.00;;;3.20;;
82744;SDS011;72484;50.004;14.356;2024-03-23T21:30:44;9.80;;;3.10;;
82744;SDS011;72484;50.004;14.356;2024-03-23T21:34:04;8.50;;;2.90;;
82744;SDS011;72484;50.004;14.356;2024-03-23T21:38:05;9.40;;;3.30;;
82744;SDS011;72484;50.004;14.356;2024-03-23T21:42:04;7.90;;;3.00;;
82744;SDS011;72484;50.004;14.356;2024-03-23T21:46:04;9.40;;;3.30;;
82744;SDS011;72484;50.004;14.356;2024-03-23T21:50:04;7.80;;;2.80;;
82744;SDS011;72484;50.004;14.356;2024-03-23T21:54:23;8.30;;;2.90;;
82744;SDS011;72484;50.004;14.356;2024-03-23T21:57:43;8.70;;;3.00;;
82744;SDS011;72484;50.004;14.356;2024-03-23T22:02:04;9.40;;;2.90;;
82744;SDS011;72484;50.004;14.356;2024-03-23T22:05:24;8.30;;;2.90;;
82744;SDS011;72484;50.004;14.356;2024-03-23T22:09:41;8.40;;;3.30;;
82744;SDS011;72484;50.004;14.356;2024-03-23T22:13:00;8.40;;;3.40;;
82744;SDS011;72484;50.004;14.356;2024-03-23T22:17:17;9.20;;;3.60;;
82744;SDS011;72484;50.004;14.356;2024-03-23T22:20:37;11.00;;;3.30;;
82744;SDS011;72484;50.004;14.356;2024-03-23T22:24:56;8.90;;;3.20;;
82744;SDS011;72484;50.004;14.356;2024-03-23T22:28:34;8.20;;;2.90;;
82744;SDS011;72484;50.004;14.356;2024-03-23T22:31:54;8.00;;;2.90;;
82744;SDS011;72484;50.004;14.356;2024-03-23T22:35:54;7.90;;;2.90;;
82744;SDS011;72484;50.004;14.356;2024-03-23T22:40:13;9.00;;;2.70;;
82744;SDS011;72484;50.004;14.356;2024-03-23T22:43:32;8.90;;;3.00;;
82744;SDS011;72484;50.004;14.356;2024-03-23T22:47:31;8.10;;;2.80;;
82744;SDS011;72484;50.004;14.356;2024-03-23T22:51:48;8.60;;;2.80;;
82744;SDS011;72484;50.004;14.356;2024-03-23T22:55:26;9.00;;;3.00;;
82744;SDS011;72484;50.004;14.356;2024-03-23T22:59:04;7.50;;;3.20;;
82744;SDS011;72484;50.004;14.356;2024-03-23T23:02:24;7.80;;;2.90;;
82744;SDS011;72484;50.004;14.356;2024-03-23T23:06:23;8.10;;;3.30;;
82744;SDS011;72484;50.004;14.356;2024-03-23T23:10:45;10.60;;;4.60;;
82744;SDS011;72484;50.004;14.356;2024-03-23T23:14:18;10.90;;;4.20;;